Time;durP1;ratioP1;P1;durP2;ratioP2;P2;SDS_P1;SDS_P2;PMS_P1;PMS_P2;Temp;Humidity;BMP_temperature;BMP_pressure;BME280_temperature;BME280_humidity;BME280_pressure;Samples;Min_cycle;Max_cycle;Signal;HPM_P1;HPM_P2
2022/06/09 00:01:14;;;;;;;2.60;1.80;;;11.70;99.90;;;;;;4181941;28;20188;-70
2022/06/09 00:03:21;;;;;;;2.03;1.50;;;11.70;99.90;;;;;;4166047;28;20184;-70
2022/06/09 00:05:23;;;;;;;1.60;1.33;;;11.70;99.90;;;;;;4165290;28;20554;-70
2022/06/09 00:07:25;;;;;;;1.60;1.37;;;11.60;99.90;;;;;;4165775;28;20178;-70
2022/06/09 00:09:30;;;;;;;1.87;1.30;;;11.60;99.90;;;;;;4165699;28;20173;-70
2022/06/09 00:11:35;;;;;;;1.87;1.50;;;11.70;99.90;;;;;;4165769;28;20181;-72
2022/06/09 00:13:38;;;;;;;1.40;1.30;;;11.70;99.90;;;;;;4165445;28;20177;-70
2022/06/09 00:15:39;;;;;;;1.40;1.30;;;11.70;99.90;;;;;;4164611;28;20208;-70
2022/06/09 00:17:40;;;;;;;1.43;1.33;;;11.70;99.90;;;;;;4165348;28;20173;-70
2022/06/09 00:19:41;;;;;;;1.53;1.43;;;11.60;99.90;;;;;;4165305;28;20744;-70
2022/06/09 00:21:42;;;;;;;1.63;1.43;;;11.60;99.90;;;;;;4167590;28;20196;-70
2022/06/09 00:23:43;;;;;;;1.50;1.40;;;11.40;99.90;;;;;;4181721;28;20615;-71
2022/06/09 00:25:44;;;;;;;1.70;1.30;;;11.40;99.90;;;;;;4181191;28;20195;-71
2022/06/09 00:27:45;;;;;;;1.93;1.30;;;11.40;99.90;;;;;;4181659;28;20226;-71
2022/06/09 00:29:46;;;;;;;1.97;1.70;;;11.30;99.90;;;;;;4180536;28;20180;-71
2022/06/09 00:31:46;;;;;;;1.63;1.30;;;11.30;99.90;;;;;;4181418;28;20190;-70
2022/06/09 00:33:47;;;;;;;2.37;1.40;;;11.30;99.90;;;;;;4180120;28;20184;-70
2022/06/09 00:35:48;;;;;;;2.00;1.27;;;11.30;99.90;;;;;;4180746;28;20200;-71
2022/06/09 00:37:48;;;;;;;1.20;1.10;;;11.40;99.90;;;;;;4181637;28;20180;-70
2022/06/09 00:39:49;;;;;;;2.03;1.20;;;11.40;99.90;;;;;;4180303;28;20184;-70
2022/06/09 00:41:49;;;;;;;1.70;1.60;;;11.40;99.90;;;;;;4181449;28;20243;-70
2022/06/09 00:43:50;;;;;;;1.27;1.17;;;11.30;99.90;;;;;;4181520;28;20224;-71
2022/06/09 00:46:02;;;;;;;1.37;1.20;;;11.20;99.90;;;;;;4180715;28;20204;-71
2022/06/09 00:48:20;;;;;;;1.40;1.30;;;11.30;99.90;;;;;;4181452;28;20234;-71
2022/06/09 00:50:26;;;;;;;1.30;1.20;;;11.30;99.90;;;;;;4181474;28;20190;-71
2022/06/09 00:52:32;;;;;;;1.37;1.17;;;11.30;99.90;;;;;;4181334;28;20195;-71
2022/06/09 00:54:42;;;;;;;1.20;1.10;;;11.30;99.90;;;;;;4181126;28;20203;-70
2022/06/09 00:56:47;;;;;;;0.87;0.87;;;11.40;99.90;;;;;;4180608;28;20199;-71
2022/06/09 00:58:51;;;;;;;1.20;0.90;;;11.60;99.90;;;;;;4180065;28;20336;-71
2022/06/09 01:00:59;;;;;;;0.80;0.80;;;11.70;99.90;;;;;;4181016;28;20176;-71
2022/06/09 01:03:01;;;;;;;1.50;1.00;;;11.80;99.90;;;;;;4181234;28;20204;-71
2022/06/09 01:05:04;;;;;;;2.40;1.47;;;11.90;99.90;;;;;;4181022;28;20188;-70
2022/06/09 01:07:15;;;;;;;0.90;0.90;;;11.90;99.90;;;;;;4181058;28;20624;-71
2022/06/09 01:09:22;;;;;;;1.90;0.80;;;11.90;99.90;;;;;;4181119;28;20203;-69
2022/06/09 01:11:23;;;;;;;1.20;0.93;;;11.90;99.90;;;;;;4181069;28;20548;-69
2022/06/09 01:13:24;;;;;;;1.90;1.30;;;11.90;99.90;;;;;;4180802;28;20184;-70
2022/06/09 01:15:55;;;;;;;1.33;0.90;;;12.00;99.90;;;;;;4179975;28;20239;-69
2022/06/09 01:18:18;;;;;;;1.17;0.97;;;12.00;99.90;;;;;;4181272;28;20173;-69
2022/06/09 01:20:34;;;;;;;0.90;0.90;;;12.00;99.90;;;;;;4180758;28;20196;-69
2022/06/09 01:23:08;;;;;;;1.27;1.17;;;12.10;99.90;;;;;;4180921;28;20549;-69
2022/06/09 01:25:30;;;;;;;1.23;1.13;;;12.00;99.90;;;;;;4180649;28;20239;-69
2022/06/09 01:27:51;;;;;;;1.33;1.23;;;11.90;99.90;;;;;;4180757;28;20830;-70
2022/06/09 01:30:06;;;;;;;2.53;1.73;;;11.90;99.90;;;;;;4181155;28;20176;-71
2022/06/09 01:32:18;;;;;;;1.53;1.10;;;11.90;99.90;;;;;;4180541;28;20180;-71
2022/06/09 01:34:40;;;;;;;1.30;1.00;;;11.90;99.90;;;;;;4180526;28;20188;-72
2022/06/09 01:37:06;;;;;;;1.33;1.23;;;11.90;99.90;;;;;;4178871;28;20208;-70
2022/06/09 01:39:07;;;;;;;1.30;1.20;;;11.80;99.90;;;;;;4180817;28;20215;-71
2022/06/09 01:41:08;;;;;;;1.20;1.10;;;11.70;99.90;;;;;;4180685;28;20180;-71
2022/06/09 01:43:09;;;;;;;2.33;2.13;;;11.70;99.90;;;;;;4180530;28;20187;-70
2022/06/09 01:45:13;;;;;;;2.30;1.10;;;11.80;99.90;;;;;;4180392;28;20749;-71
2022/06/09 01:47:17;;;;;;;1.37;1.27;;;11.80;99.90;;;;;;4180281;28;20180;-71
2022/06/09 01:49:23;;;;;;;3.70;1.10;;;11.80;99.90;;;;;;4180421;28;20172;-71
2022/06/09 01:51:26;;;;;;;2.33;1.30;;;11.70;99.90;;;;;;4180677;28;20274;-70
2022/06/09 01:53:37;;;;;;;1.30;1.20;;;11.60;99.90;;;;;;4180461;28;20180;-71
2022/06/09 01:55:44;;;;;;;1.63;1.53;;;11.60;99.90;;;;;;4180094;28;20215;-71
2022/06/09 01:57:48;;;;;;;1.63;1.23;;;11.50;99.90;;;;;;4180578;28;20859;-71
2022/06/09 02:00:00;;;;;;;4.30;1.43;;;11.40;99.90;;;;;;4180222;28;20222;-71
2022/06/09 02:02:13;;;;;;;1.80;1.20;;;11.40;99.90;;;;;;4180585;28;20187;-70
2022/06/09 02:04:22;;;;;;;1.30;1.20;;;11.40;99.90;;;;;;4180321;28;20245;-71
2022/06/09 02:06:23;;;;;;;1.33;1.23;;;11.40;99.90;;;;;;4178336;28;20255;-71
2022/06/09 02:08:25;;;;;;;4.17;1.60;;;11.30;99.90;;;;;;4164593;28;20188;-71
2022/06/09 02:10:37;;;;;;;2.30;1.30;;;11.20;99.90;;;;;;4162546;28;20219;-71
2022/06/09 02:12:38;;;;;;;2.17;1.60;;;11.20;99.90;;;;;;4163804;28;20230;-71
2022/06/09 02:14:43;;;;;;;2.77;1.50;;;11.10;99.90;;;;;;4162287;28;20692;-71
2022/06/09 02:16:44;;;;;;;1.77;1.47;;;11.00;99.90;;;;;;4162867;28;20236;-71
2022/06/09 02:18:48;;;;;;;3.50;1.40;;;11.00;99.90;;;;;;4163455;28;20220;-71
2022/06/09 02:20:54;;;;;;;4.53;1.93;;;10.90;99.90;;;;;;4167802;28;20192;-71
2022/06/09 02:22:55;;;;;;;2.20;1.50;;;10.90;99.90;;;;;;4179866;28;20184;-71
2022/06/09 02:24:55;;;;;;;1.77;1.50;;;10.90;99.90;;;;;;4179542;28;20756;-71
2022/06/09 02:26:56;;;;;;;1.50;1.40;;;10.90;99.90;;;;;;4178949;28;20176;-73
2022/06/09 02:28:57;;;;;;;2.33;1.97;;;10.90;99.90;;;;;;4179703;28;20560;-71
2022/06/09 02:30:58;;;;;;;3.50;1.60;;;10.90;99.90;;;;;;4178656;28;20187;-72
2022/06/09 02:32:58;;;;;;;1.97;1.30;;;10.90;99.90;;;;;;4180074;28;20207;-70
2022/06/09 02:34:59;;;;;;;2.87;1.37;;;10.90;99.90;;;;;;4179582;28;20224;-71
2022/06/09 02:36:59;;;;;;;5.37;1.47;;;10.90;99.90;;;;;;4179094;28;20211;-71
2022/06/09 02:39:00;;;;;;;2.53;1.33;;;10.80;99.90;;;;;;4178055;28;20207;-70
2022/06/09 02:41:02;;;;;;;5.17;1.50;;;10.80;99.90;;;;;;4179938;28;20638;-71
2022/06/09 02:43:03;;;;;;;4.00;1.60;;;10.70;99.90;;;;;;4178304;28;20249;-71
2022/06/09 02:45:04;;;;;;;4.40;1.43;;;10.80;99.90;;;;;;4178447;28;20630;-71
2022/06/09 02:47:04;;;;;;;3.33;1.37;;;10.70;99.90;;;;;;4179040;28;20190;-71
2022/06/09 02:49:05;;;;;;;2.03;1.60;;;10.70;99.90;;;;;;4179529;28;20220;-70
2022/06/09 02:51:17;;;;;;;2.23;1.30;;;10.60;99.90;;;;;;4179880;28;20215;-71
2022/06/09 02:53:19;;;;;;;2.70;1.40;;;10.60;99.90;;;;;;4179447;28;20176;-70
2022/06/09 02:55:19;;;;;;;2.07;1.50;;;10.50;99.90;;;;;;4178915;28;20205;-71
2022/06/09 02:57:23;;;;;;;1.80;1.47;;;10.40;99.90;;;;;;4179445;28;20172;-71
2022/06/09 02:59:24;;;;;;;2.27;1.27;;;10.40;99.90;;;;;;4179204;28;20180;-71
2022/06/09 03:01:26;;;;;;;1.90;1.37;;;10.40;99.90;;;;;;4179374;28;20190;-71
2022/06/09 03:03:26;;;;;;;2.23;1.70;;;10.30;99.90;;;;;;4179316;28;20683;-70
2022/06/09 03:05:29;;;;;;;2.97;1.53;;;10.30;99.90;;;;;;4178669;28;20222;-70
2022/06/09 03:07:30;;;;;;;4.87;1.50;;;10.30;99.90;;;;;;4179476;28;20305;-70
2022/06/09 03:09:30;;;;;;;3.00;1.37;;;10.20;99.90;;;;;;4179169;28;20191;-70
2022/06/09 03:11:31;;;;;;;2.63;1.57;;;10.20;99.90;;;;;;4179525;28;20679;-71
2022/06/09 03:13:31;;;;;;;3.23;1.60;;;10.20;99.90;;;;;;4179279;28;20180;-70
2022/06/09 03:15:33;;;;;;;3.37;1.27;;;10.20;99.90;;;;;;4178371;28;20175;-70
2022/06/09 03:17:35;;;;;;;3.37;1.47;;;10.20;99.90;;;;;;4178764;28;20223;-71
2022/06/09 03:19:36;;;;;;;1.77;1.50;;;10.20;99.90;;;;;;4179394;28;20292;-71
2022/06/09 03:21:37;;;;;;;2.73;1.67;;;10.20;99.90;;;;;;4179211;28;20220;-71
2022/06/09 03:23:38;;;;;;;2.17;1.60;;;10.10;99.90;;;;;;4179151;28;20317;-70
2022/06/09 03:25:38;;;;;;;3.37;1.70;;;10.20;99.90;;;;;;4178300;28;20578;-71
2022/06/09 03:27:39;;;;;;;3.33;1.50;;;10.30;99.90;;;;;;4179085;28;20179;-71
2022/06/09 03:29:40;;;;;;;2.23;1.60;;;10.40;99.90;;;;;;4179044;28;20191;-70
2022/06/09 03:31:40;;;;;;;2.93;1.83;;;10.50;99.90;;;;;;4179080;28;20182;-70
2022/06/09 03:33:41;;;;;;;3.13;1.40;;;10.60;99.90;;;;;;4180370;28;20286;-71
2022/06/09 03:35:42;;;;;;;3.53;1.67;;;10.70;99.90;;;;;;4182001;28;20215;-70
2022/06/09 03:37:42;;;;;;;2.27;1.33;;;10.70;99.90;;;;;;4182396;28;20329;-70
2022/06/09 03:39:43;;;;;;;1.40;1.30;;;10.70;99.90;;;;;;4182302;28;20173;-69
2022/06/09 03:41:43;;;;;;;3.67;1.50;;;10.70;99.90;;;;;;4182456;28;20184;-72
2022/06/09 03:43:44;;;;;;;3.23;1.60;;;10.70;99.90;;;;;;4182407;28;20670;-70
2022/06/09 03:45:45;;;;;;;2.73;1.60;;;10.80;99.90;;;;;;4181610;28;20184;-70
2022/06/09 03:47:45;;;;;;;2.57;1.40;;;10.80;99.90;;;;;;4180914;28;20199;-71
2022/06/09 03:49:46;;;;;;;2.20;1.40;;;10.90;99.90;;;;;;4181955;28;20192;-70
2022/06/09 03:51:46;;;;;;;2.50;1.30;;;11.00;99.90;;;;;;4182383;28;20183;-71
2022/06/09 03:53:47;;;;;;;3.67;1.50;;;10.90;99.90;;;;;;4182080;28;20188;-69
2022/06/09 03:55:48;;;;;;;5.90;1.60;;;11.00;99.90;;;;;;4181326;28;20265;-70
2022/06/09 03:57:48;;;;;;;4.60;1.90;;;10.90;99.90;;;;;;4180697;28;20212;-70
2022/06/09 03:59:49;;;;;;;2.20;1.50;;;10.90;99.90;;;;;;4182120;28;20237;-70
2022/06/09 04:01:50;;;;;;;5.13;1.70;;;10.80;99.90;;;;;;4182242;28;20187;-69
2022/06/09 04:03:50;;;;;;;1.93;1.60;;;10.80;99.90;;;;;;4178171;28;20228;-70
2022/06/09 04:05:51;;;;;;;3.77;1.80;;;10.90;99.90;;;;;;4164720;28;20189;-70
2022/06/09 04:07:51;;;;;;;1.60;1.50;;;10.90;99.90;;;;;;4165541;28;20193;-70
2022/06/09 04:09:52;;;;;;;1.50;1.40;;;10.90;99.90;;;;;;4165380;28;20189;-70
2022/06/09 04:11:52;;;;;;;1.57;1.47;;;10.80;99.90;;;;;;4165602;28;20181;-70
2022/06/09 04:13:53;;;;;;;2.03;0.90;;;10.70;99.90;;;;;;4165397;28;20215;-70
2022/06/09 04:15:54;;;;;;;0.80;0.80;;;10.60;99.90;;;;;;4164857;28;20342;-70
2022/06/09 04:17:54;;;;;;;1.37;0.90;;;10.70;99.90;;;;;;4165452;28;20188;-70
2022/06/09 04:19:55;;;;;;;1.93;1.10;;;10.70;99.90;;;;;;4165706;28;20191;-71
2022/06/09 04:21:55;;;;;;;1.47;1.00;;;10.70;99.90;;;;;;4165442;28;20271;-70
2022/06/09 04:23:56;;;;;;;0.93;0.90;;;10.70;99.90;;;;;;4165396;28;20212;-70
2022/06/09 04:25:57;;;;;;;2.97;1.00;;;10.80;99.90;;;;;;4164749;28;20187;-70
2022/06/09 04:27:58;;;;;;;3.43;1.07;;;10.80;99.90;;;;;;4165245;28;20213;-70
2022/06/09 04:29:58;;;;;;;1.07;0.97;;;10.80;99.90;;;;;;4164953;28;20541;-70
2022/06/09 04:31:59;;;;;;;1.57;1.00;;;10.80;99.90;;;;;;4165222;28;20202;-70
2022/06/09 04:33:59;;;;;;;1.80;1.53;;;10.80;99.90;;;;;;4167283;28;20270;-70
2022/06/09 04:36:00;;;;;;;3.00;1.20;;;10.90;99.90;;;;;;4174291;28;20290;-70
2022/06/09 04:38:01;;;;;;;2.70;1.00;;;10.90;99.90;;;;;;4181565;28;20172;-70
2022/06/09 04:40:01;;;;;;;1.97;0.90;;;10.90;99.90;;;;;;4181620;28;20181;-70
2022/06/09 04:42:02;;;;;;;1.93;1.07;;;10.90;99.90;;;;;;4181498;28;20181;-70
2022/06/09 04:44:03;;;;;;;1.30;1.10;;;10.90;99.90;;;;;;4179783;28;20208;-70
2022/06/09 04:46:05;;;;;;;0.87;0.83;;;10.90;99.90;;;;;;4182061;28;20192;-70
2022/06/09 04:48:06;;;;;;;1.00;0.90;;;10.90;99.90;;;;;;4182534;28;20184;-69
2022/06/09 04:50:09;;;;;;;2.67;1.40;;;10.70;99.90;;;;;;4182042;28;20184;-70
2022/06/09 04:52:09;;;;;;;2.03;1.20;;;10.70;99.90;;;;;;4182211;28;20181;-69
2022/06/09 04:54:10;;;;;;;1.93;1.30;;;10.70;99.90;;;;;;4182002;28;20204;-69
2022/06/09 04:56:11;;;;;;;1.50;0.93;;;10.70;99.90;;;;;;4181768;28;20224;-69
2022/06/09 04:58:12;;;;;;;1.17;0.70;;;10.70;99.90;;;;;;4182035;28;20193;-69
2022/06/09 05:00:14;;;;;;;3.87;1.17;;;10.80;99.90;;;;;;4182546;28;20249;-70
2022/06/09 05:02:15;;;;;;;0.93;0.93;;;10.80;99.90;;;;;;4182479;28;20168;-69
2022/06/09 05:04:15;;;;;;;2.20;1.00;;;10.80;99.90;;;;;;4182312;28;20204;-69
2022/06/09 05:06:18;;;;;;;4.40;1.00;;;10.80;99.90;;;;;;4181525;28;20663;-70
2022/06/09 05:08:19;;;;;;;0.93;0.93;;;10.90;99.90;;;;;;4182487;28;20168;-69
2022/06/09 05:10:20;;;;;;;2.10;1.00;;;11.10;99.90;;;;;;4182354;28;20621;-69
2022/06/09 05:12:21;;;;;;;1.50;1.00;;;11.30;99.90;;;;;;4182540;28;20213;-69
2022/06/09 05:14:21;;;;;;;1.90;1.10;;;11.40;99.90;;;;;;4182205;28;20294;-69
2022/06/09 05:16:22;;;;;;;3.30;1.20;;;11.40;99.90;;;;;;4181814;28;20215;-69
2022/06/09 05:18:26;;;;;;;3.20;1.30;;;11.50;99.90;;;;;;4182346;28;20176;-70
2022/06/09 05:20:27;;;;;;;2.30;1.20;;;11.50;99.90;;;;;;4182168;28;20234;-69
2022/06/09 05:22:28;;;;;;;1.90;1.10;;;11.50;99.90;;;;;;4183586;28;20188;-69
2022/06/09 05:24:28;;;;;;;5.50;1.47;;;11.50;99.90;;;;;;4182517;28;20204;-70
2022/06/09 05:26:29;;;;;;;5.03;1.27;;;11.50;99.90;;;;;;4182002;28;20898;-70
2022/06/09 05:28:31;;;;;;;1.33;1.03;;;11.50;99.90;;;;;;4182303;28;20208;-69
2022/06/09 05:30:31;;;;;;;3.33;1.20;;;11.30;99.90;;;;;;4182644;28;20180;-69
2022/06/09 05:32:32;;;;;;;4.83;1.43;;;11.30;99.90;;;;;;4182351;28;20555;-70
2022/06/09 05:34:33;;;;;;;2.37;1.30;;;11.40;99.90;;;;;;4182092;28;20207;-69
2022/06/09 05:36:34;;;;;;;5.53;3.17;;;11.60;99.90;;;;;;4181886;28;20800;-69
2022/06/09 05:45:36;;;;;;;6.77;2.10;;;10.90;99.90;;;;;;4179348;28;20618;-69
2022/06/09 05:47:36;;;;;;;4.37;1.60;;;10.80;99.90;;;;;;4180105;28;20172;-69
2022/06/09 05:49:37;;;;;;;4.20;1.70;;;10.70;99.90;;;;;;4179817;28;20180;-69
2022/06/09 05:51:38;;;;;;;5.87;1.90;;;10.80;99.90;;;;;;4179726;28;20168;-69
2022/06/09 05:53:38;;;;;;;11.23;1.83;;;10.90;99.90;;;;;;4179590;28;20176;-69
2022/06/09 05:55:39;;;;;;;5.43;2.07;;;10.80;99.90;;;;;;4178163;28;20536;-69
2022/06/09 05:57:39;;;;;;;4.03;1.70;;;10.80;99.90;;;;;;4179399;28;20180;-69
2022/06/09 05:59:40;;;;;;;7.70;1.70;;;10.90;99.90;;;;;;4179296;28;20172;-69
2022/06/09 06:01:42;;;;;;;2.90;1.87;;;10.90;99.90;;;;;;4179274;28;20261;-69
2022/06/09 06:03:42;;;;;;;3.47;1.40;;;11.10;99.90;;;;;;4179297;28;20180;-69
2022/06/09 06:08:02;;;;;;;2.77;1.50;;;11.10;99.90;;;;;;4168061;28;20200;-69
2022/06/09 06:10:03;;;;;;;3.00;1.47;;;11.30;99.90;;;;;;4161596;28;20182;-69
2022/06/09 06:12:04;;;;;;;3.57;1.30;;;11.40;99.90;;;;;;4162753;28;20276;-71
2022/06/09 06:14:06;;;;;;;2.80;1.77;;;11.30;99.90;;;;;;4162775;28;20217;-69
2022/06/09 06:16:07;;;;;;;3.43;1.47;;;11.20;99.90;;;;;;4162001;28;20684;-69
2022/06/09 06:18:07;;;;;;;3.07;1.50;;;11.20;99.90;;;;;;4162792;28;20188;-68
2022/06/09 06:20:09;;;;;;;4.47;2.00;;;11.30;99.90;;;;;;4162645;28;20688;-70
2022/06/09 06:22:10;;;;;;;3.97;1.50;;;11.30;99.90;;;;;;4162763;28;20191;-70
2022/06/09 06:24:11;;;;;;;3.77;1.40;;;11.40;99.90;;;;;;4162797;28;20965;-70
2022/06/09 06:26:12;;;;;;;5.83;2.40;;;11.40;99.90;;;;;;4162354;28;20243;-69
2022/06/09 06:28:13;;;;;;;4.10;1.30;;;11.60;99.90;;;;;;4162564;28;20264;-69
2022/06/09 06:30:14;;;;;;;5.27;1.30;;;11.80;99.90;;;;;;4162603;28;20580;-68
2022/06/09 06:32:14;;;;;;;2.30;1.37;;;12.10;99.90;;;;;;4162730;28;20532;-70
2022/06/09 06:34:16;;;;;;;5.37;1.40;;;12.20;99.90;;;;;;4162461;28;20197;-70
2022/06/09 06:36:17;;;;;;;5.03;1.70;;;12.30;99.90;;;;;;4161857;28;20236;-70
2022/06/09 06:38:17;;;;;;;11.53;1.93;;;12.50;99.90;;;;;;4162490;28;20181;-69
2022/06/09 06:40:18;;;;;;;2.87;1.10;;;12.80;99.20;;;;;;4169070;28;20205;-70
2022/06/09 06:42:19;;;;;;;3.70;1.30;;;12.80;98.30;;;;;;4178904;28;20203;-70
2022/06/09 06:44:19;;;;;;;3.90;1.60;;;12.50;98.40;;;;;;4178802;28;20212;-70
2022/06/09 06:46:20;;;;;;;4.17;1.43;;;12.40;98.40;;;;;;4176873;28;20188;-70
2022/06/09 06:48:20;;;;;;;2.90;1.00;;;12.30;98.50;;;;;;4175569;28;20193;-70
2022/06/09 06:50:21;;;;;;;5.03;1.30;;;12.30;98.70;;;;;;4175959;28;20223;-70
2022/06/09 06:52:22;;;;;;;2.63;1.27;;;12.30;98.30;;;;;;4177584;28;20667;-70
2022/06/09 06:54:23;;;;;;;4.77;1.47;;;12.20;97.90;;;;;;4178700;28;20250;-70
2022/06/09 06:56:23;;;;;;;3.77;1.10;;;12.00;97.70;;;;;;4172194;28;20213;-70
2022/06/09 06:58:24;;;;;;;2.77;2.03;;;11.90;97.80;;;;;;4168253;28;20723;-70
2022/06/09 07:00:25;;;;;;;2.07;1.40;;;12.20;97.40;;;;;;4162183;28;20645;-70
2022/06/09 07:02:26;;;;;;;3.33;1.10;;;12.30;97.00;;;;;;4162294;28;20283;-70
2022/06/09 07:04:26;;;;;;;4.90;1.30;;;12.70;97.00;;;;;;4162255;28;20671;-70
2022/06/09 07:06:27;;;;;;;2.90;1.40;;;13.00;95.60;;;;;;4161473;28;20181;-70
2022/06/09 07:08:28;;;;;;;3.03;1.10;;;13.20;94.20;;;;;;4162037;28;20188;-70
2022/06/09 07:10:28;;;;;;;5.33;1.33;;;13.20;94.50;;;;;;4162092;28;20221;-70
2022/06/09 07:12:29;;;;;;;3.77;1.17;;;13.30;94.60;;;;;;4162128;28;20853;-70
2022/06/09 07:14:30;;;;;;;2.90;1.07;;;13.30;93.60;;;;;;4162034;28;20212;-70
2022/06/09 07:16:30;;;;;;;3.27;1.70;;;13.30;93.90;;;;;;4161415;28;20969;-70
2022/06/09 07:18:32;;;;;;;3.57;1.50;;;13.20;94.80;;;;;;4162048;28;20181;-69
2022/06/09 07:20:33;;;;;;;3.77;1.60;;;13.00;94.40;;;;;;4161926;28;20187;-70
2022/06/09 07:22:33;;;;;;;2.77;1.37;;;12.70;94.80;;;;;;4162065;28;20258;-70
2022/06/09 07:24:34;;;;;;;4.40;1.50;;;12.90;95.50;;;;;;4160841;28;20196;-70
2022/06/09 07:26:35;;;;;;;4.40;1.30;;;13.20;95.00;;;;;;4161436;28;20210;-69
2022/06/09 07:28:35;;;;;;;3.43;1.27;;;13.50;94.50;;;;;;4162076;28;20185;-70
2022/06/09 07:30:36;;;;;;;3.03;1.20;;;13.80;91.70;;;;;;4162026;28;20215;-70
2022/06/09 07:32:37;;;;;;;2.03;1.27;;;14.10;91.30;;;;;;4161961;28;20249;-70
2022/06/09 07:34:37;;;;;;;3.30;1.97;;;14.10;92.10;;;;;;4162002;28;20197;-70
2022/06/09 07:36:39;;;;;;;7.93;1.33;;;14.10;91.70;;;;;;4161328;28;20608;-70
2022/06/09 07:38:40;;;;;;;3.87;1.87;;;14.10;92.30;;;;;;4161853;28;20178;-69
2022/06/09 07:40:41;;;;;;;2.37;1.33;;;14.10;91.50;;;;;;4168738;28;20188;-68
2022/06/09 07:42:42;;;;;;;4.40;1.20;;;13.80;91.90;;;;;;4163081;28;20242;-70
2022/06/09 07:44:44;;;;;;;6.70;1.50;;;13.40;93.50;;;;;;4173886;28;20568;-68
2022/06/09 07:46:44;;;;;;;4.63;1.67;;;12.90;95.60;;;;;;4172586;28;20664;-69
2022/06/09 07:48:45;;;;;;;5.47;1.60;;;12.60;97.10;;;;;;4174763;28;20193;-69
2022/06/09 07:50:47;;;;;;;1.90;1.10;;;12.20;98.40;;;;;;4171663;28;20188;-69
2022/06/09 07:52:48;;;;;;;3.07;1.37;;;12.00;97.50;;;;;;4174940;28;20172;-69
2022/06/09 07:54:48;;;;;;;5.17;1.50;;;11.90;99.90;;;;;;4175071;28;20193;-69
2022/06/09 07:56:49;;;;;;;2.80;1.50;;;11.90;99.80;;;;;;4172620;28;20722;-69
2022/06/09 07:58:50;;;;;;;6.50;1.80;;;12.10;99.90;;;;;;4173943;28;20184;-68
2022/06/09 08:00:50;;;;;;;2.00;1.50;;;12.20;99.90;;;;;;4174312;28;20195;-69
2022/06/09 08:02:51;;;;;;;4.43;1.50;;;12.60;99.90;;;;;;4174802;28;20192;-70
2022/06/09 08:04:52;;;;;;;2.17;1.37;;;12.90;99.20;;;;;;4174496;28;20543;-71
2022/06/09 08:06:52;;;;;;;2.27;1.23;;;13.10;98.50;;;;;;4173266;28;20199;-69
2022/06/09 08:08:55;;;;;;;2.60;1.40;;;13.20;97.50;;;;;;4177092;28;20192;-69
2022/06/09 08:10:56;;;;;;;1.80;1.30;;;13.10;98.40;;;;;;4174786;28;20242;-69
2022/06/09 08:12:59;;;;;;;2.60;1.30;;;13.40;99.00;;;;;;4177765;28;20192;-70
2022/06/09 08:15:00;;;;;;;3.03;1.10;;;13.70;97.30;;;;;;4177588;28;20208;-69
2022/06/09 08:17:01;;;;;;;1.83;1.00;;;13.50;96.50;;;;;;4176572;28;20212;-69
2022/06/09 08:19:02;;;;;;;2.63;1.33;;;13.70;95.50;;;;;;4178006;28;20193;-70
2022/06/09 08:21:03;;;;;;;2.70;1.20;;;13.90;96.40;;;;;;4180732;28;20568;-70
2022/06/09 08:23:09;;;;;;;1.83;1.00;;;14.10;96.20;;;;;;4180781;28;20179;-70
2022/06/09 08:25:14;;;;;;;2.50;1.30;;;14.10;95.50;;;;;;4180522;28;20222;-70
2022/06/09 08:27:14;;;;;;;1.80;1.10;;;13.90;92.30;;;;;;4180257;28;20184;-70
2022/06/09 08:29:15;;;;;;;2.07;1.20;;;13.50;93.60;;;;;;4180540;28;20702;-70
2022/06/09 08:31:16;;;;;;;5.83;1.60;;;13.60;94.50;;;;;;4180333;28;20238;-71
2022/06/09 08:33:17;;;;;;;2.37;1.10;;;13.80;95.90;;;;;;4187972;28;20641;-70
2022/06/09 08:35:18;;;;;;;2.97;2.00;;;13.90;94.60;;;;;;4189621;28;20204;-70
2022/06/09 08:37:19;;;;;;;1.20;1.10;;;13.70;94.30;;;;;;4186827;28;20211;-70
2022/06/09 08:39:20;;;;;;;1.93;1.00;;;13.40;92.20;;;;;;4183478;28;20211;-70
2022/06/09 08:41:33;;;;;;;2.43;1.47;;;13.20;92.50;;;;;;4187531;28;20183;-69
2022/06/09 08:43:47;;;;;;;4.40;1.30;;;13.20;93.80;;;;;;4187566;28;20187;-70
2022/06/09 08:45:52;;;;;;;4.33;1.43;;;13.10;93.80;;;;;;4190436;28;20172;-69
2022/06/09 08:47:55;;;;;;;4.10;1.67;;;13.10;92.80;;;;;;4184490;28;20208;-70
2022/06/09 08:50:32;;;;;;;2.23;1.20;;;13.20;92.50;;;;;;4190794;28;20202;-70
2022/06/09 08:52:41;;;;;;;2.37;1.43;;;13.20;92.00;;;;;;4160567;28;20193;-71
2022/06/09 08:54:42;;;;;;;6.67;1.33;;;13.50;93.20;;;;;;4193361;28;20199;-73
2022/06/09 08:56:45;;;;;;;5.60;1.40;;;13.80;91.90;;;;;;4181311;28;20208;-71
2022/06/09 08:58:53;;;;;;;3.80;1.30;;;13.60;91.20;;;;;;4193719;28;20532;-71
2022/06/09 09:01:12;;;;;;;1.90;1.10;;;13.80;89.70;;;;;;4183445;28;20171;-69
2022/06/09 09:03:19;;;;;;;3.37;1.40;;;14.00;89.80;;;;;;4190251;28;20243;-71
2022/06/09 09:05:38;;;;;;;3.40;3.03;;;13.70;90.10;;;;;;4186212;28;20200;-70
2022/06/09 09:07:45;;;;;;;3.53;1.70;;;13.50;89.20;;;;;;4185477;28;20485;-70
2022/06/09 09:09:46;;;;;;;3.17;1.57;;;13.70;90.00;;;;;;4181475;28;20238;-70
2022/06/09 09:11:52;;;;;;;1.93;1.00;;;13.70;89.80;;;;;;4190422;28;20261;-70
2022/06/09 09:13:59;;;;;;;2.10;1.10;;;13.90;85.30;;;;;;4184367;28;20209;-73
2022/06/09 09:16:03;;;;;;;1.57;1.10;;;14.20;84.80;;;;;;4191772;28;20215;-69
2022/06/09 09:18:30;;;;;;;4.13;1.10;;;14.40;85.20;;;;;;4182797;28;20852;-69
2022/06/09 09:20:34;;;;;;;3.43;3.00;;;14.90;84.90;;;;;;4178212;28;20208;-69
2022/06/09 09:22:58;;;;;;;4.27;1.10;;;15.00;80.20;;;;;;4195167;28;20186;-69
2022/06/09 09:25:21;;;;;;;4.77;1.43;;;15.10;77.20;;;;;;4184008;28;20228;-70
2022/06/09 09:27:40;;;;;;;4.87;1.17;;;15.40;79.50;;;;;;4188681;28;20686;-70
2022/06/09 09:29:43;;;;;;;2.17;1.83;;;15.40;77.70;;;;;;4189613;28;20245;-71
2022/06/09 09:32:08;;;;;;;4.07;1.37;;;15.30;77.00;;;;;;4183903;28;20184;-71
2022/06/09 09:34:16;;;;;;;3.17;1.97;;;15.40;79.00;;;;;;4192206;28;20203;-70
2022/06/09 09:36:30;;;;;;;3.23;1.63;;;15.30;73.40;;;;;;4180052;28;20975;-71
2022/06/09 09:38:38;;;;;;;2.87;1.10;;;15.90;76.00;;;;;;4167557;28;20268;-69
2022/06/09 09:40:45;;;;;;;5.43;1.33;;;16.20;71.50;;;;;;4194556;28;20179;-70
2022/06/09 09:42:47;;;;;;;2.70;1.23;;;15.40;67.90;;;;;;4181849;28;20191;-71
2022/06/09 09:44:58;;;;;;;1.70;1.00;;;15.60;67.70;;;;;;4192852;28;20291;-70
2022/06/09 09:47:02;;;;;;;1.63;1.53;;;16.00;70.00;;;;;;4180337;28;20183;-69
2022/06/09 09:49:15;;;;;;;3.90;1.40;;;16.00;65.10;;;;;;4179032;28;20659;-71
2022/06/09 09:51:15;;;;;;;3.33;1.30;;;15.60;66.20;;;;;;4185717;28;20265;-70
2022/06/09 09:53:19;;;;;;;2.97;1.20;;;15.80;67.80;;;;;;4187695;28;20325;-70
2022/06/09 09:55:28;;;;;;;1.77;1.40;;;16.00;69.80;;;;;;4187834;28;20204;-69
2022/06/09 09:57:28;;;;;;;2.50;1.00;;;16.00;65.60;;;;;;4185977;28;20210;-70
2022/06/09 09:59:29;;;;;;;1.57;1.43;;;15.40;66.30;;;;;;4186909;28;20694;-70
2022/06/09 10:08:35;;;;;;;2.37;1.10;;;15.50;69.50;;;;;;4187532;28;20591;-69
2022/06/09 10:09:30;;;;;;;3.33;2.20;;;16.00;67.10;;;;;;4176122;28;20202;-72
2022/06/09 10:11:54;;;;;;;2.77;1.27;;;15.90;67.90;;;;;;4172646;28;20622;-71
2022/06/09 10:13:59;;;;;;;4.33;1.20;;;16.40;65.40;;;;;;4188389;28;20207;-72
2022/06/09 10:16:02;;;;;;;4.47;1.40;;;16.20;66.40;;;;;;4177885;28;20203;-70
2022/06/09 10:18:12;;;;;;;3.67;1.33;;;16.80;63.70;;;;;;4191742;28;20172;-69
2022/06/09 10:20:19;;;;;;;3.73;1.40;;;16.70;62.60;;;;;;4180263;28;20294;-71
2022/06/09 10:22:26;;;;;;;1.57;1.23;;;16.70;68.60;;;;;;4183985;28;20188;-71
2022/06/09 10:25:11;;;;;;;5.47;1.37;;;16.70;62.40;;;;;;4195005;28;20199;-71
2022/06/09 10:27:16;;;;;;;3.23;1.67;;;17.30;61.00;;;;;;4173761;28;20198;-70
2022/06/09 10:29:37;;;;;;;3.87;1.90;;;17.10;63.10;;;;;;4188304;28;20694;-70
2022/06/09 10:31:45;;;;;;;3.23;1.67;;;17.40;61.10;;;;;;4180646;28;20191;-71
2022/06/09 10:33:46;;;;;;;1.37;1.00;;;16.70;62.90;;;;;;4178126;28;20683;-70
2022/06/09 10:35:54;;;;;;;1.80;1.00;;;16.10;65.50;;;;;;4177611;28;20195;-71
2022/06/09 10:38:12;;;;;;;4.10;1.03;;;16.10;65.40;;;;;;4190464;28;20214;-70
2022/06/09 10:40:37;;;;;;;2.43;1.20;;;15.50;66.60;;;;;;4178392;28;20181;-69
2022/06/09 10:42:45;;;;;;;3.97;1.20;;;15.30;67.10;;;;;;4164317;28;20192;-70
2022/06/09 10:45:01;;;;;;;1.27;1.10;;;14.90;70.60;;;;;;4192463;28;20673;-72
2022/06/09 10:55:15;;;;;;;1.97;1.40;;;15.30;71.00;;;;;;4165979;28;20318;-68
2022/06/09 10:57:46;;;;;;;3.37;1.77;;;17.20;65.80;;;;;;4178088;28;20211;-70
2022/06/09 10:59:55;;;;;;;2.90;1.50;;;19.20;61.00;;;;;;4189086;28;20584;-69
2022/06/09 11:01:56;;;;;;;3.67;2.33;;;20.00;54.70;;;;;;4182585;28;20177;-70
2022/06/09 11:03:59;;;;;;;2.77;1.37;;;19.80;53.30;;;;;;4186718;28;20203;-70
2022/06/09 11:06:07;;;;;;;5.20;1.63;;;18.90;56.80;;;;;;4173370;28;20252;-71
2022/06/09 11:08:45;;;;;;;2.63;1.30;;;18.80;59.60;;;;;;4176904;28;20188;-70
2022/06/09 11:11:11;;;;;;;3.83;1.97;;;17.80;60.10;;;;;;4176497;28;20651;-71